createdAt,value
2018-09-01T10:44:17.901Z,50.4
2018-09-01T11:01:04.463Z,48.8
2018-09-01T11:12:49.143Z,49.6
2018-09-01T11:29:36.334Z,48.8
2018-09-01T11:46:23.565Z,47.6
2018-09-01T11:56:27.715Z,47.2
2018-09-01T12:13:14.345Z,48.4
2018-09-01T12:30:01.559Z,48.0
2018-09-01T12:46:49.207Z,47.2
2018-09-01T13:03:37.100Z,47.6
2018-09-01T13:20:25.002Z,47.2
2018-09-01T13:37:12.869Z,46.8
2018-09-01T13:54:01.098Z,46.4
2018-09-01T14:10:49.115Z,46.8
2018-09-01T14:27:36.996Z,47.6
2018-09-01T14:44:24.805Z,47.6
2018-09-01T15:01:13.007Z,47.6
2018-09-01T15:18:01.417Z,46.8
2018-09-01T15:34:49.692Z,48.0
2018-09-01T15:51:37.919Z,48.4
2018-09-01T16:08:26.102Z,49.2
2018-09-01T16:25:14.282Z,49.6
2018-09-01T16:42:02.320Z,49.6
2018-09-01T16:58:50.583Z,49.6
2018-09-01T17:15:38.831Z,50.8
2018-09-01T17:32:27.002Z,51.6
2018-09-01T17:45:53.460Z,53.6
2018-09-01T18:02:41.722Z,54.0
2018-09-01T18:19:30.044Z,56.0
2018-09-01T18:36:18.141Z,56.4
2018-09-01T18:53:06.900Z,56.8
2018-09-01T19:09:54.300Z,57.2
2018-09-01T19:26:42.399Z,57.6
2018-09-01T19:43:30.372Z,57.6
2018-09-01T20:00:18.305Z,57.6
2018-09-01T20:17:06.301Z,58.4
2018-09-01T20:33:53.318Z,58.0
2018-09-01T20:50:40.421Z,58.0
2018-09-01T21:07:27.437Z,58.0
2018-09-01T21:24:14.264Z,58.0
2018-09-01T21:41:01.218Z,58.0
2018-09-01T21:57:48.243Z,58.0
2018-09-01T22:14:35.016Z,58.0
2018-09-01T22:31:22.448Z,58.0
2018-09-01T22:48:08.781Z,58.0
2018-09-01T23:04:55.339Z,58.0
2018-09-01T23:21:42.021Z,58.0
2018-09-01T23:38:28.740Z,58.0
2018-09-01T23:55:15.318Z,58.0
